Terminal Aerodrome Forecast
Issued by NWS Sioux Falls, SD

Home | Current Version | Previous Version | Text Only | Print | Product List | Glossary Off
Versions: 1 2 3 4 5 6 7 8 9 10 11 12 13 14 15 16 17 18 19

000
FTUS43 KFSD 142300
TAFFSD
TAF
KFSD 142326Z 1500/1524 34012KT P6SM VCSH SCT050 BKN060
      TEMPO 1500/1501 32015G27KT BKN050
     FM150100 34011KT P6SM BKN060
     FM150300 36007KT P6SM SCT050
     FM150500 VRB03KT P6SM SKC
     FM151400 17008KT P6SM FEW080
     FM151800 16015G21KT P6SM SCT130=

USA.gov is the U.S. government's official web portal to all federal, state and local government web resources and services.